createdAt,value
2017-12-17T00:00:53.414Z,1004.20
2017-12-17T00:01:53.294Z,1004.19
2017-12-17T00:02:53.384Z,1004.19
2017-12-17T00:03:53.347Z,1004.17
2017-12-17T00:04:53.418Z,1004.20
2017-12-17T00:05:53.350Z,1004.17
2017-12-17T00:06:53.419Z,1004.17
2017-12-17T00:07:53.423Z,1004.18
2017-12-17T00:08:53.347Z,1004.23
2017-12-17T00:09:53.390Z,1004.18
2017-12-17T00:10:53.424Z,1004.20
2017-12-17T00:11:53.426Z,1004.19
2017-12-17T00:12:53.345Z,1004.23
2017-12-17T00:13:53.424Z,1004.23
2017-12-17T00:14:53.426Z,1004.21
2017-12-17T00:15:53.347Z,1004.20
2017-12-17T00:16:53.424Z,1004.25
2017-12-17T00:17:53.353Z,1004.29
2017-12-17T00:18:53.427Z,1004.23
2017-12-17T00:19:53.357Z,1004.23
2017-12-17T00:20:53.353Z,1004.22
2017-12-17T00:21:53.354Z,1004.22
2017-12-17T00:22:53.429Z,1004.21
2017-12-17T00:23:53.356Z,1004.18
2017-12-17T00:24:53.431Z,1004.25
2017-12-17T00:25:53.363Z,1004.26
2017-12-17T00:26:53.432Z,1004.24
2017-12-17T00:27:53.366Z,1004.27
2017-12-17T00:28:53.434Z,1004.21
2017-12-17T00:29:53.362Z,1004.25
2017-12-17T00:30:53.433Z,1004.21
2017-12-17T00:31:53.442Z,1004.24
2017-12-17T00:32:53.361Z,1004.27
2017-12-17T00:33:53.396Z,1004.29
2017-12-17T00:34:53.362Z,1004.24
2017-12-17T00:35:53.317Z,1004.25
2017-12-17T00:36:53.396Z,1004.23
2017-12-17T00:37:53.331Z,1004.25
2017-12-17T00:38:53.413Z,1004.24
2017-12-17T00:39:53.400Z,1004.24
2017-12-17T00:40:53.415Z,1004.23
2017-12-17T00:41:53.328Z,1004.23
2017-12-17T00:42:53.368Z,1004.24
2017-12-17T00:43:53.443Z,1004.27
2017-12-17T00:44:53.368Z,1004.26
2017-12-17T00:45:53.443Z,1004.28
2017-12-17T00:46:53.376Z,1004.29
2017-12-17T00:47:53.443Z,1004.30
2017-12-17T00:48:53.375Z,1004.35
2017-12-17T00:49:53.374Z,1004.34
2017-12-17T00:50:53.447Z,1004.36
2017-12-17T00:51:53.504Z,1004.31
2017-12-17T00:52:53.445Z,1004.39
2017-12-17T00:53:53.317Z,1004.41
2017-12-17T00:54:53.370Z,1004.42
2017-12-17T00:55:53.376Z,1004.37
2017-12-17T00:56:53.412Z,1004.42
2017-12-17T00:57:53.414Z,1004.35
2017-12-17T00:58:53.375Z,1004.41
2017-12-17T00:59:53.413Z,1004.42
2017-12-17T01:00:53.386Z,1004.38
2017-12-17T01:01:53.413Z,1004.41
2017-12-17T01:02:53.414Z,1004.45
2017-12-17T01:03:53.386Z,1004.43
2017-12-17T01:04:53.397Z,1004.44
2017-12-17T01:05:53.391Z,1004.44
2017-12-17T01:06:53.333Z,1004.49
2017-12-17T01:07:53.283Z,1004.47
2017-12-17T01:08:53.286Z,1004.47
2017-12-17T01:09:53.386Z,1004.49
2017-12-17T01:10:53.309Z,1004.51
2017-12-17T01:11:53.330Z,1004.55
2017-12-17T01:12:53.382Z,1004.60
2017-12-17T01:13:53.464Z,1004.60
2017-12-17T01:14:53.391Z,1004.60
2017-12-17T01:15:53.462Z,1004.64
2017-12-17T01:16:53.386Z,1004.66
2017-12-17T01:17:53.462Z,1004.71
2017-12-17T01:18:53.387Z,1004.64
2017-12-17T01:19:53.463Z,1004.72
2017-12-17T01:20:53.395Z,1004.76
2017-12-17T01:21:53.465Z,1004.78
2017-12-17T01:22:53.438Z,1004.82
2017-12-17T01:23:53.465Z,1004.76
2017-12-17T01:24:53.392Z,1004.82
2017-12-17T01:25:53.390Z,1004.82
2017-12-17T01:26:53.393Z,1004.91
2017-12-17T01:27:53.397Z,1004.91
2017-12-17T01:28:53.471Z,1004.92
2017-12-17T01:29:53.396Z,1004.91
2017-12-17T01:30:53.469Z,1004.94
2017-12-17T01:31:53.393Z,1004.97
2017-12-17T01:32:53.398Z,1004.98
2017-12-17T01:33:53.401Z,1005.03
2017-12-17T01:34:53.431Z,1005.02
2017-12-17T01:35:53.434Z,1004.98
2017-12-17T01:36:53.326Z,1005.03
2017-12-17T01:37:53.323Z,1005.00
2017-12-17T01:38:53.428Z,1005.03
2017-12-17T01:39:53.325Z,1004.94
2017-12-17T01:40:53.341Z,1004.98
2017-12-17T01:41:53.431Z,1004.94
2017-12-17T01:42:53.374Z,1004.95
2017-12-17T01:43:53.642Z,1004.95
2017-12-17T01:44:53.351Z,1004.98
2017-12-17T01:45:53.349Z,1004.96
2017-12-17T01:46:53.461Z,1005.01
2017-12-17T01:47:53.473Z,1004.96
2017-12-17T01:48:53.479Z,1004.98
2017-12-17T01:49:53.445Z,1005.00
2017-12-17T01:50:53.519Z,1005.00
2017-12-17T01:51:53.474Z,1005.04
2017-12-17T01:52:53.382Z,1005.03
2017-12-17T01:53:53.482Z,1005.02
2017-12-17T01:54:53.448Z,1005.02
2017-12-17T01:55:53.387Z,1005.04
2017-12-17T01:56:53.429Z,1005.06
2017-12-17T01:57:53.362Z,1005.07
2017-12-17T01:58:53.364Z,1005.08
2017-12-17T01:59:53.408Z,1005.09
2017-12-17T02:00:53.478Z,1005.13
2017-12-17T02:01:53.367Z,1005.13
2017-12-17T02:02:53.363Z,1005.11
2017-12-17T02:03:53.421Z,1005.13
2017-12-17T02:04:53.489Z,1005.10
2017-12-17T02:05:53.416Z,1005.14
2017-12-17T02:06:53.499Z,1005.10
2017-12-17T02:07:53.418Z,1005.10
2017-12-17T02:08:53.419Z,1005.11
2017-12-17T02:09:53.493Z,1005.17
2017-12-17T02:10:53.456Z,1005.18
2017-12-17T02:11:53.494Z,1005.12
2017-12-17T02:12:53.420Z,1005.14
2017-12-17T02:13:53.497Z,1005.17
2017-12-17T02:14:53.425Z,1005.17
2017-12-17T02:15:53.497Z,1005.18
2017-12-17T02:16:53.424Z,1005.23
2017-12-17T02:17:53.496Z,1005.17
2017-12-17T02:18:53.429Z,1005.14
2017-12-17T02:19:53.433Z,1005.15
2017-12-17T02:20:53.501Z,1005.18
2017-12-17T02:21:53.429Z,1005.12
2017-12-17T02:22:53.499Z,1005.16
2017-12-17T02:23:53.428Z,1005.16
2017-12-17T02:24:53.501Z,1005.15
2017-12-17T02:25:53.430Z,1005.12
2017-12-17T02:26:53.502Z,1005.15
2017-12-17T02:27:53.432Z,1005.18
2017-12-17T02:28:53.502Z,1005.19
2017-12-17T02:29:53.434Z,1005.22
2017-12-17T02:30:53.507Z,1005.20
2017-12-17T02:31:53.433Z,1005.18
2017-12-17T02:32:53.588Z,1005.16
2017-12-17T02:33:53.433Z,1005.20
2017-12-17T02:34:53.510Z,1005.21
2017-12-17T02:35:53.436Z,1005.20
2017-12-17T02:36:53.510Z,1005.25
2017-12-17T02:37:53.443Z,1005.25
2017-12-17T02:38:53.514Z,1005.23
2017-12-17T02:39:53.445Z,1005.26
2017-12-17T02:40:53.512Z,1005.26
2017-12-17T02:41:53.448Z,1005.27
2017-12-17T02:42:53.515Z,1005.29
2017-12-17T02:43:53.437Z,1005.29
2017-12-17T02:44:53.516Z,1005.29
2017-12-17T02:45:53.516Z,1005.32
2017-12-17T02:46:53.441Z,1005.34
2017-12-17T02:47:53.513Z,1005.35
2017-12-17T02:48:53.442Z,1005.39
2017-12-17T02:49:53.517Z,1005.36
2017-12-17T02:50:53.452Z,1005.40
2017-12-17T02:51:53.517Z,1005.43
2017-12-17T02:52:53.445Z,1005.42
2017-12-17T02:53:53.445Z,1005.44
2017-12-17T02:54:53.487Z,1005.45
2017-12-17T02:55:53.421Z,1005.46
2017-12-17T02:56:53.515Z,1005.42
2017-12-17T02:57:53.510Z,1005.39
2017-12-17T02:58:53.488Z,1005.38
2017-12-17T02:59:53.467Z,1005.36
2017-12-17T03:00:53.423Z,1005.41
2017-12-17T03:01:53.507Z,1005.36
2017-12-17T03:02:53.401Z,1005.40
2017-12-17T03:03:53.403Z,1005.40
2017-12-17T03:04:53.450Z,1005.45
2017-12-17T03:05:53.527Z,1005.45
2017-12-17T03:06:53.452Z,1005.43
2017-12-17T03:07:53.527Z,1005.43
2017-12-17T03:08:53.462Z,1005.42
2017-12-17T03:09:53.528Z,1005.42
2017-12-17T03:10:53.462Z,1005.47
2017-12-17T03:11:53.531Z,1005.45
2017-12-17T03:12:53.492Z,1005.42
2017-12-17T03:13:53.531Z,1005.38
2017-12-17T03:14:53.458Z,1005.37
2017-12-17T03:15:53.529Z,1005.34
2017-12-17T03:16:53.533Z,1005.38
2017-12-17T03:17:53.454Z,1005.36
2017-12-17T03:18:53.462Z,1005.39
2017-12-17T03:19:53.533Z,1005.33
2017-12-17T03:20:53.465Z,1005.39
2017-12-17T03:21:53.535Z,1005.33
2017-12-17T03:22:53.462Z,1005.42
2017-12-17T03:23:53.534Z,1005.41
2017-12-17T03:24:53.500Z,1005.38
2017-12-17T03:25:53.499Z,1005.44
2017-12-17T03:26:53.423Z,1005.41
2017-12-17T03:27:53.538Z,1005.46
2017-12-17T03:28:53.406Z,1005.45
2017-12-17T03:29:53.403Z,1005.50
2017-12-17T03:30:53.408Z,1005.54
2017-12-17T03:31:53.473Z,1005.57
2017-12-17T03:32:53.393Z,1005.54
2017-12-17T03:33:53.475Z,1005.58
2017-12-17T03:34:53.546Z,1005.57
2017-12-17T03:35:53.539Z,1005.63
2017-12-17T03:36:53.468Z,1005.67
2017-12-17T03:37:53.547Z,1005.66
2017-12-17T03:38:53.481Z,1005.67
2017-12-17T03:39:53.556Z,1005.64
2017-12-17T03:40:53.473Z,1005.70
2017-12-17T03:41:53.549Z,1005.70
2017-12-17T03:42:53.479Z,1005.71
2017-12-17T03:43:53.550Z,1005.69
2017-12-17T03:44:53.554Z,1005.71
2017-12-17T03:45:53.490Z,1005.67
2017-12-17T03:46:53.552Z,1005.65
2017-12-17T03:47:53.590Z,1005.64
2017-12-17T03:48:53.484Z,1005.67
2017-12-17T03:49:53.481Z,1005.67
2017-12-17T03:50:53.552Z,1005.70
2017-12-17T03:51:53.483Z,1005.74
2017-12-17T03:52:53.556Z,1005.70
2017-12-17T03:53:53.527Z,1005.72
2017-12-17T03:54:53.424Z,1005.73
2017-12-17T03:55:53.513Z,1005.72
2017-12-17T03:56:53.424Z,1005.76
2017-12-17T03:57:53.516Z,1005.74
2017-12-17T03:58:53.500Z,1005.73
2017-12-17T03:59:53.484Z,1005.75
2017-12-17T04:00:53.516Z,1005.76
2017-12-17T04:01:53.462Z,1005.75
2017-12-17T04:02:53.393Z,1005.74
2017-12-17T04:03:53.524Z,1005.77
2017-12-17T04:04:53.506Z,1005.78
2017-12-17T04:05:53.489Z,1005.77
2017-12-17T04:06:53.506Z,1005.82
2017-12-17T04:07:53.510Z,1005.75
2017-12-17T04:08:53.508Z,1005.75
2017-12-17T04:09:53.554Z,1005.79
2017-12-17T04:10:53.564Z,1005.76
2017-12-17T04:11:53.509Z,1005.82
2017-12-17T04:12:53.512Z,1005.83
2017-12-17T04:13:53.444Z,1005.83
2017-12-17T04:14:53.469Z,1005.85
2017-12-17T04:15:53.549Z,1005.87
2017-12-17T04:16:53.519Z,1005.83
2017-12-17T04:17:53.451Z,1005.90
2017-12-17T04:18:53.537Z,1005.82
2017-12-17T04:19:53.479Z,1005.90
2017-12-17T04:20:53.469Z,1005.90
2017-12-17T04:21:53.448Z,1005.88
2017-12-17T04:22:53.518Z,1005.88
2017-12-17T04:23:53.571Z,1005.88
2017-12-17T04:24:53.489Z,1005.92
2017-12-17T04:25:53.572Z,1005.90
2017-12-17T04:26:53.539Z,1005.88
2017-12-17T04:27:53.565Z,1005.90
2017-12-17T04:28:53.575Z,1005.92
2017-12-17T04:29:53.558Z,1005.91
2017-12-17T04:30:53.544Z,1005.99
2017-12-17T04:31:53.563Z,1005.94
2017-12-17T04:32:53.526Z,1006.00
2017-12-17T04:33:53.483Z,1006.00
2017-12-17T04:34:53.509Z,1006.04
2017-12-17T04:35:53.527Z,1006.04
2017-12-17T04:36:53.545Z,1005.97
2017-12-17T04:37:53.543Z,1006.00
2017-12-17T04:38:53.449Z,1006.05
2017-12-17T04:39:53.490Z,1006.07
2017-12-17T04:40:53.562Z,1006.10
2017-12-17T04:41:53.546Z,1006.11
2017-12-17T04:42:53.528Z,1006.11
2017-12-17T04:43:53.454Z,1006.12
2017-12-17T04:44:53.516Z,1006.16
2017-12-17T04:45:53.591Z,1006.19
2017-12-17T04:46:53.518Z,1006.22
2017-12-17T04:47:53.588Z,1006.25
2017-12-17T04:48:53.588Z,1006.18
2017-12-17T04:49:53.590Z,1006.21
2017-12-17T04:50:53.514Z,1006.20
2017-12-17T04:51:53.590Z,1006.24
2017-12-17T04:52:53.522Z,1006.26
2017-12-17T04:53:53.593Z,1006.26
2017-12-17T04:54:53.577Z,1006.26
2017-12-17T04:55:53.580Z,1006.27
2017-12-17T04:56:53.497Z,1006.22
2017-12-17T04:57:53.563Z,1006.28
2017-12-17T04:58:53.563Z,1006.23
2017-12-17T04:59:53.594Z,1006.26
2017-12-17T05:00:53.494Z,1006.31
2017-12-17T05:01:53.586Z,1006.31
2017-12-17T05:02:53.595Z,1006.31
2017-12-17T05:03:53.526Z,1006.33
2017-12-17T05:04:53.527Z,1006.33
2017-12-17T05:05:53.598Z,1006.37
2017-12-17T05:06:53.531Z,1006.38
2017-12-17T05:07:53.601Z,1006.39
2017-12-17T05:08:53.559Z,1006.40
2017-12-17T05:09:53.601Z,1006.44
2017-12-17T05:10:53.586Z,1006.48
2017-12-17T05:11:53.533Z,1006.42
2017-12-17T05:12:53.603Z,1006.44
2017-12-17T05:13:53.534Z,1006.45
2017-12-17T05:14:53.603Z,1006.49
2017-12-17T05:15:53.532Z,1006.48
2017-12-17T05:16:53.604Z,1006.52
2017-12-17T05:17:53.629Z,1006.52
2017-12-17T05:18:53.537Z,1006.49
2017-12-17T05:19:53.607Z,1006.49
2017-12-17T05:20:53.534Z,1006.51
2017-12-17T05:21:53.607Z,1006.52
2017-12-17T05:22:53.612Z,1006.53
2017-12-17T05:23:53.537Z,1006.52
2017-12-17T05:24:53.569Z,1006.50
2017-12-17T05:25:53.571Z,1006.54
2017-12-17T05:26:53.570Z,1006.54
2017-12-17T05:27:53.511Z,1006.52
2017-12-17T05:28:53.567Z,1006.55
2017-12-17T05:29:53.566Z,1006.53
2017-12-17T05:30:53.478Z,1006.56
2017-12-17T05:31:53.571Z,1006.59
2017-12-17T05:32:53.556Z,1006.59
2017-12-17T05:33:53.496Z,1006.58
2017-12-17T05:34:53.615Z,1006.59
2017-12-17T05:35:53.545Z,1006.61
2017-12-17T05:36:53.617Z,1006.64
2017-12-17T05:37:53.553Z,1006.65
2017-12-17T05:38:53.547Z,1006.69
2017-12-17T05:39:53.620Z,1006.70
2017-12-17T05:40:53.548Z,1006.70
2017-12-17T05:41:53.620Z,1006.75
2017-12-17T05:42:53.563Z,1006.73
2017-12-17T05:43:53.622Z,1006.70
2017-12-17T05:44:53.545Z,1006.67
2017-12-17T05:45:53.507Z,1006.70
2017-12-17T05:46:53.574Z,1006.72
2017-12-17T05:47:53.536Z,1006.74
2017-12-17T05:48:53.554Z,1006.73
2017-12-17T05:49:53.447Z,1006.76
2017-12-17T05:50:53.510Z,1006.78
2017-12-17T05:51:53.554Z,1006.76
2017-12-17T05:52:53.562Z,1006.76
2017-12-17T05:53:53.521Z,1006.72
2017-12-17T05:54:53.627Z,1006.71
2017-12-17T05:55:53.626Z,1006.71
2017-12-17T05:56:53.630Z,1006.72
2017-12-17T05:57:53.554Z,1006.72
2017-12-17T05:58:53.629Z,1006.81
2017-12-17T05:59:53.555Z,1006.86
2017-12-17T06:00:53.556Z,1006.81
2017-12-17T06:01:53.632Z,1006.81
2017-12-17T06:02:53.561Z,1006.80
2017-12-17T06:03:53.634Z,1006.82
2017-12-17T06:04:53.635Z,1006.88
2017-12-17T06:05:53.570Z,1006.87
2017-12-17T06:06:53.634Z,1006.88
2017-12-17T06:07:53.567Z,1006.90
2017-12-17T06:08:53.635Z,1006.90
2017-12-17T06:09:53.576Z,1006.88
2017-12-17T06:10:53.638Z,1006.93
2017-12-17T06:11:53.565Z,1006.98
2017-12-17T06:12:53.644Z,1006.91
2017-12-17T06:13:53.572Z,1006.97
2017-12-17T06:14:53.544Z,1006.98
2017-12-17T06:15:53.567Z,1006.98
2017-12-17T06:16:53.583Z,1006.94
2017-12-17T06:17:53.570Z,1006.98
2017-12-17T06:18:53.526Z,1006.98
2017-12-17T06:19:53.525Z,1006.99
2017-12-17T06:20:53.526Z,1007.03
2017-12-17T06:21:53.566Z,1007.05
2017-12-17T06:22:53.621Z,1007.10
2017-12-17T06:23:53.606Z,1007.15
2017-12-17T06:24:53.652Z,1007.10
2017-12-17T06:25:53.572Z,1007.13
2017-12-17T06:26:53.652Z,1007.16
2017-12-17T06:27:53.574Z,1007.18
2017-12-17T06:28:53.647Z,1007.18
2017-12-17T06:29:53.572Z,1007.19
2017-12-17T06:30:53.648Z,1007.21
2017-12-17T06:31:53.572Z,1007.25
2017-12-17T06:32:53.562Z,1007.28
2017-12-17T06:33:53.584Z,1007.27
2017-12-17T06:34:53.650Z,1007.29
2017-12-17T06:35:53.580Z,1007.30
2017-12-17T06:36:53.650Z,1007.34
2017-12-17T06:37:53.581Z,1007.37
2017-12-17T06:38:53.654Z,1007.41
2017-12-17T06:39:53.578Z,1007.45
2017-12-17T06:40:53.577Z,1007.41
2017-12-17T06:41:53.583Z,1007.44
2017-12-17T06:42:53.657Z,1007.48
2017-12-17T06:43:53.587Z,1007.48
2017-12-17T06:44:53.620Z,1007.54
2017-12-17T06:45:53.594Z,1007.51
2017-12-17T06:46:53.570Z,1007.51
2017-12-17T06:47:53.647Z,1007.56
2017-12-17T06:48:53.642Z,1007.58
2017-12-17T06:49:53.610Z,1007.61
2017-12-17T06:50:53.642Z,1007.63
2017-12-17T06:51:53.556Z,1007.62
2017-12-17T06:52:53.557Z,1007.59
2017-12-17T06:53:53.559Z,1007.62
2017-12-17T06:54:53.661Z,1007.57
2017-12-17T06:55:53.591Z,1007.61
2017-12-17T06:56:53.662Z,1007.61
2017-12-17T06:57:53.591Z,1007.65
2017-12-17T06:58:53.677Z,1007.65
2017-12-17T06:59:53.594Z,1007.59
2017-12-17T07:00:53.667Z,1007.67
2017-12-17T07:01:53.593Z,1007.63
2017-12-17T07:02:53.670Z,1007.66
2017-12-17T07:03:53.599Z,1007.64
2017-12-17T07:04:53.534Z,1007.61
2017-12-17T07:05:53.632Z,1007.67
2017-12-17T07:06:53.534Z,1007.63
2017-12-17T07:07:53.614Z,1007.66
2017-12-17T07:08:53.595Z,1007.68
2017-12-17T07:09:53.570Z,1007.64
2017-12-17T07:10:53.633Z,1007.65
2017-12-17T07:11:53.580Z,1007.70
2017-12-17T07:12:53.633Z,1007.67
2017-12-17T07:13:53.622Z,1007.64
2017-12-17T07:14:53.679Z,1007.66
2017-12-17T07:15:53.606Z,1007.69
2017-12-17T07:16:53.677Z,1007.66
2017-12-17T07:17:53.608Z,1007.66
2017-12-17T07:18:53.608Z,1007.72
2017-12-17T07:19:53.679Z,1007.73
2017-12-17T07:20:53.678Z,1007.77
2017-12-17T07:21:53.607Z,1007.79
2017-12-17T07:22:53.680Z,1007.77
2017-12-17T07:23:53.634Z,1007.76
2017-12-17T07:24:53.675Z,1007.81
2017-12-17T07:25:53.643Z,1007.82
2017-12-17T07:26:53.588Z,1007.81
2017-12-17T07:27:53.681Z,1007.85
2017-12-17T07:28:53.563Z,1007.87
2017-12-17T07:29:53.609Z,1007.87
2017-12-17T07:30:53.562Z,1007.88
2017-12-17T07:31:53.589Z,1007.96
2017-12-17T07:32:53.564Z,1007.99
2017-12-17T07:33:53.651Z,1008.02
2017-12-17T07:34:53.688Z,1008.02
2017-12-17T07:35:53.620Z,1008.03
2017-12-17T07:36:53.613Z,1008.08
2017-12-17T07:37:53.600Z,1008.09
2017-12-17T07:38:53.612Z,1008.11
2017-12-17T07:39:53.687Z,1008.13
2017-12-17T07:40:53.689Z,1008.13
2017-12-17T07:41:53.658Z,1008.16
2017-12-17T07:42:53.691Z,1008.18
2017-12-17T07:43:53.618Z,1008.19
2017-12-17T07:44:53.664Z,1008.21
2017-12-17T07:45:53.676Z,1008.22
2017-12-17T07:46:53.596Z,1008.23
2017-12-17T07:47:53.692Z,1008.18
2017-12-17T07:48:53.609Z,1008.19
2017-12-17T07:49:53.664Z,1008.20
2017-12-17T07:50:53.574Z,1008.17
2017-12-17T07:51:53.623Z,1008.22
2017-12-17T07:52:53.881Z,1008.25
2017-12-17T07:53:53.597Z,1008.25
2017-12-17T07:54:53.697Z,1008.24
2017-12-17T07:55:53.699Z,1008.22
2017-12-17T07:56:53.624Z,1008.22
2017-12-17T07:57:53.701Z,1008.26
2017-12-17T07:58:53.634Z,1008.22
2017-12-17T07:59:53.703Z,1008.18
2017-12-17T08:00:53.638Z,1008.22
2017-12-17T08:01:53.701Z,1008.22
2017-12-17T08:02:53.704Z,1008.28
2017-12-17T08:03:53.703Z,1008.29
2017-12-17T08:04:53.699Z,1008.35
2017-12-17T08:05:53.571Z,1008.33
2017-12-17T08:06:53.610Z,1008.37
2017-12-17T08:07:53.695Z,1008.37
2017-12-17T08:08:53.704Z,1008.38
2017-12-17T08:09:53.651Z,1008.43
2017-12-17T08:10:53.693Z,1008.44
2017-12-17T08:11:53.668Z,1008.42
2017-12-17T08:12:53.703Z,1008.42
2017-12-17T08:13:53.711Z,1008.44
2017-12-17T08:14:53.710Z,1008.47
2017-12-17T08:15:53.637Z,1008.55
2017-12-17T08:16:53.711Z,1008.56
2017-12-17T08:17:53.644Z,1008.56
2017-12-17T08:18:53.713Z,1008.56
2017-12-17T08:19:53.639Z,1008.59
2017-12-17T08:20:53.713Z,1008.67
2017-12-17T08:21:53.713Z,1008.67
2017-12-17T08:22:53.648Z,1008.68
2017-12-17T08:23:53.715Z,1008.66
2017-12-17T08:24:53.641Z,1008.68
2017-12-17T08:25:53.590Z,1008.74
2017-12-17T08:26:53.678Z,1008.73
2017-12-17T08:27:53.623Z,1008.78
2017-12-17T08:28:53.591Z,1008.77
2017-12-17T08:29:53.680Z,1008.77
2017-12-17T08:30:53.656Z,1008.83
2017-12-17T08:31:53.593Z,1008.79
2017-12-17T08:32:53.686Z,1008.83
2017-12-17T08:33:53.711Z,1008.84
2017-12-17T08:34:53.664Z,1008.86
2017-12-17T08:35:53.665Z,1008.85
2017-12-17T08:36:53.725Z,1008.92
2017-12-17T08:37:53.692Z,1008.91
2017-12-17T08:38:53.636Z,1008.90
2017-12-17T08:39:53.647Z,1008.96
2017-12-17T08:40:53.604Z,1008.89
2017-12-17T08:41:53.668Z,1008.94
2017-12-17T08:42:53.725Z,1008.89
2017-12-17T08:43:53.729Z,1008.97
2017-12-17T08:44:53.727Z,1008.93
2017-12-17T08:45:53.651Z,1008.92
2017-12-17T08:46:53.730Z,1008.93
2017-12-17T08:47:53.664Z,1008.95
2017-12-17T08:48:53.731Z,1008.94
2017-12-17T08:49:53.730Z,1008.99
2017-12-17T08:50:53.735Z,1008.99
2017-12-17T08:51:53.656Z,1008.98
2017-12-17T08:52:53.770Z,1009.01
2017-12-17T08:53:53.659Z,1009.06
2017-12-17T08:54:53.751Z,1009.03
2017-12-17T08:55:53.613Z,1009.01
2017-12-17T08:56:53.664Z,1009.01
2017-12-17T08:57:53.610Z,1008.98
2017-12-17T08:58:53.557Z,1008.99
2017-12-17T08:59:53.654Z,1009.06
2017-12-17T09:00:53.556Z,1009.12
2017-12-17T09:01:53.609Z,1009.02
2017-12-17T09:02:53.555Z,1009.10
2017-12-17T09:03:53.560Z,1009.09
2017-12-17T09:04:53.604Z,1009.10
2017-12-17T09:05:53.640Z,1009.12
2017-12-17T09:06:53.722Z,1009.17
2017-12-17T09:07:53.682Z,1009.16
2017-12-17T09:08:53.619Z,1009.17
2017-12-17T09:09:53.679Z,1009.20
2017-12-17T09:10:53.615Z,1009.24
2017-12-17T09:11:53.670Z,1009.25
2017-12-17T09:12:53.686Z,1009.26
2017-12-17T09:13:53.657Z,1009.23
2017-12-17T09:14:53.617Z,1009.27
2017-12-17T09:15:53.675Z,1009.27
2017-12-17T09:16:53.751Z,1009.32
2017-12-17T09:17:53.680Z,1009.31
2017-12-17T09:18:53.750Z,1009.39
2017-12-17T09:19:53.677Z,1009.36
2017-12-17T09:20:53.749Z,1009.40
2017-12-17T09:21:53.673Z,1009.43
2017-12-17T09:22:53.679Z,1009.40
2017-12-17T09:23:53.755Z,1009.43
2017-12-17T09:24:53.754Z,1009.45
2017-12-17T09:25:53.695Z,1009.46
2017-12-17T09:26:53.713Z,1009.42
2017-12-17T09:27:53.729Z,1009.43
2017-12-17T09:28:53.676Z,1009.41
2017-12-17T09:29:53.711Z,1009.46
2017-12-17T09:30:53.641Z,1009.47
2017-12-17T09:31:53.719Z,1009.48
2017-12-17T09:32:53.681Z,1009.52
2017-12-17T09:33:53.684Z,1009.54
2017-12-17T09:34:53.712Z,1009.53
2017-12-17T09:35:53.705Z,1009.59
2017-12-17T09:36:53.619Z,1009.59
2017-12-17T09:37:53.629Z,1009.55
2017-12-17T09:38:53.722Z,1009.54
2017-12-17T09:39:53.696Z,1009.60
2017-12-17T09:40:53.750Z,1009.61
2017-12-17T09:41:53.701Z,1009.59
2017-12-17T09:42:53.751Z,1009.62
2017-12-17T09:43:53.706Z,1009.63
2017-12-17T09:44:53.673Z,1009.65
2017-12-17T09:45:53.763Z,1009.64
2017-12-17T09:46:53.689Z,1009.63
2017-12-17T09:47:53.698Z,1009.65
2017-12-17T09:48:53.917Z,1009.67
2017-12-17T09:49:53.690Z,1009.71
2017-12-17T09:50:53.765Z,1009.66
2017-12-17T09:51:53.681Z,1009.71
2017-12-17T09:52:53.771Z,1009.68
2017-12-17T09:53:53.693Z,1009.72
2017-12-17T09:54:53.773Z,1009.66
2017-12-17T09:55:53.774Z,1009.67
2017-12-17T09:56:53.697Z,1009.65
2017-12-17T09:57:53.771Z,1009.67
2017-12-17T09:58:53.701Z,1009.65
2017-12-17T09:59:53.815Z,1009.67
2017-12-17T10:00:53.704Z,1009.74
2017-12-17T10:01:53.775Z,1009.69
2017-12-17T10:02:53.706Z,1009.72
2017-12-17T10:03:53.707Z,1009.70
2017-12-17T10:04:53.778Z,1009.75
2017-12-17T10:05:53.714Z,1009.68
2017-12-17T10:06:53.686Z,1009.70
2017-12-17T10:07:53.715Z,1009.67
2017-12-17T10:08:53.683Z,1009.65
2017-12-17T10:09:53.775Z,1009.64
2017-12-17T10:10:53.653Z,1009.67
2017-12-17T10:11:53.730Z,1009.71
2017-12-17T10:12:53.655Z,1009.67
2017-12-17T10:13:53.922Z,1009.66
2017-12-17T10:14:53.766Z,1009.65
2017-12-17T10:15:53.785Z,1009.66
2017-12-17T10:16:53.783Z,1009.66
2017-12-17T10:17:53.706Z,1009.64
2017-12-17T10:18:53.785Z,1009.64
2017-12-17T10:19:53.710Z,1009.69
2017-12-17T10:20:53.787Z,1009.67
2017-12-17T10:21:53.710Z,1009.70
2017-12-17T10:22:53.719Z,1009.71
2017-12-17T10:23:53.788Z,1009.75
2017-12-17T10:24:53.709Z,1009.69
2017-12-17T10:25:53.722Z,1009.77
2017-12-17T10:26:53.691Z,1009.70
2017-12-17T10:27:53.713Z,1009.75
2017-12-17T10:28:53.736Z,1009.78
2017-12-17T10:29:53.703Z,1009.83
2017-12-17T10:30:53.752Z,1009.81
2017-12-17T10:31:53.754Z,1009.82
2017-12-17T10:32:53.680Z,1009.80
2017-12-17T10:33:53.660Z,1009.79
2017-12-17T10:34:53.697Z,1009.78
2017-12-17T10:35:53.794Z,1009.77
2017-12-17T10:36:53.705Z,1009.73
2017-12-17T10:37:53.708Z,1009.74
2017-12-17T10:38:53.706Z,1009.77
2017-12-17T10:39:53.744Z,1009.78
2017-12-17T10:40:53.756Z,1009.77
2017-12-17T10:41:53.706Z,1009.77
2017-12-17T10:42:53.737Z,1009.77
2017-12-17T10:43:53.678Z,1009.80
2017-12-17T10:44:53.803Z,1009.78
2017-12-17T10:45:53.733Z,1009.80
2017-12-17T10:46:53.803Z,1009.82
2017-12-17T10:47:53.727Z,1009.83
2017-12-17T10:48:53.771Z,1009.86
2017-12-17T10:49:53.734Z,1009.85
2017-12-17T10:50:53.804Z,1009.90
2017-12-17T10:51:53.737Z,1009.82
2017-12-17T10:52:53.838Z,1009.89
2017-12-17T10:53:53.732Z,1009.88
2017-12-17T10:54:53.808Z,1009.91
2017-12-17T10:55:53.731Z,1009.92
2017-12-17T10:56:53.809Z,1009.89
2017-12-17T10:57:53.744Z,1009.93
2017-12-17T10:58:53.808Z,1009.93
2017-12-17T10:59:53.742Z,1009.93
2017-12-17T11:00:53.816Z,1009.90
2017-12-17T11:01:53.744Z,1009.96
2017-12-17T11:02:53.820Z,1010.00
2017-12-17T11:03:53.753Z,1010.02
2017-12-17T11:04:53.813Z,1010.06
2017-12-17T11:05:53.813Z,1010.04
2017-12-17T11:06:53.808Z,1010.07
2017-12-17T11:07:53.765Z,1010.09
2017-12-17T11:08:53.738Z,1010.05
2017-12-17T11:09:53.709Z,1010.03
2017-12-17T11:10:53.727Z,1010.07
2017-12-17T11:11:53.755Z,1010.06
2017-12-17T11:12:53.813Z,1010.05
2017-12-17T11:13:53.812Z,1010.02
2017-12-17T11:14:53.819Z,1010.10
2017-12-17T11:15:53.819Z,1010.03
2017-12-17T11:16:53.742Z,1010.08
2017-12-17T11:17:53.816Z,1010.06
2017-12-17T11:18:53.821Z,1010.10
2017-12-17T11:19:53.747Z,1010.09
2017-12-17T11:20:53.822Z,1010.06
2017-12-17T11:21:53.746Z,1010.08
2017-12-17T11:22:53.823Z,1010.09
2017-12-17T11:23:53.784Z,1010.08
2017-12-17T11:24:53.822Z,1010.06
2017-12-17T11:25:53.782Z,1010.04
2017-12-17T11:26:53.692Z,1010.08
2017-12-17T11:27:53.783Z,1010.11
2017-12-17T11:28:53.695Z,1010.06
2017-12-17T11:29:53.690Z,1010.09
2017-12-17T11:30:53.764Z,1010.07
2017-12-17T11:31:53.722Z,1010.06
2017-12-17T11:32:53.740Z,1010.08
2017-12-17T11:33:53.789Z,1010.05
2017-12-17T11:34:53.724Z,1010.06
2017-12-17T11:35:53.829Z,1010.06
2017-12-17T11:36:53.831Z,1010.08
2017-12-17T11:37:53.828Z,1010.08
2017-12-17T11:38:53.833Z,1010.07
2017-12-17T11:39:53.828Z,1010.10
2017-12-17T11:40:53.757Z,1010.09
2017-12-17T11:41:53.834Z,1010.11
2017-12-17T11:42:53.747Z,1010.12
2017-12-17T11:43:53.831Z,1010.11
2017-12-17T11:44:53.836Z,1010.15
2017-12-17T11:45:53.827Z,1010.12
2017-12-17T11:46:53.718Z,1010.11
2017-12-17T11:47:53.792Z,1010.15
2017-12-17T11:48:53.834Z,1010.19
2017-12-17T11:49:53.801Z,1010.20
2017-12-17T11:50:53.814Z,1010.13
2017-12-17T11:51:53.765Z,1010.19
2017-12-17T11:52:53.832Z,1010.14
2017-12-17T11:53:53.810Z,1010.15
2017-12-17T11:54:53.833Z,1010.22
2017-12-17T11:55:53.758Z,1010.17
2017-12-17T11:56:53.845Z,1010.14
2017-12-17T11:57:53.772Z,1010.18
2017-12-17T11:58:53.844Z,1010.14
2017-12-17T11:59:53.769Z,1010.13
2017-12-17T12:00:53.843Z,1010.14
2017-12-17T12:01:53.770Z,1010.17
2017-12-17T12:02:53.847Z,1010.16
2017-12-17T12:03:53.770Z,1010.23
2017-12-17T12:04:53.847Z,1010.22
2017-12-17T12:05:53.851Z,1010.21